Date,TemperatureHighF,TemperatureAvgF,TemperatureLowF,DewpointHighF,DewpointAvgF,DewpointLowF,HumidityHigh,HumidityAvg,HumidityLow,PressureMaxIn,PressureMinIn,WindSpeedMaxMPH,WindSpeedAvgMPH,GustSpeedMaxMPH,PrecipitationSumIn
2013-1-1,69,61,50,67,57,44,94,86,74,30.16,29.83,24,10,31,0.03
2013-1-2,50,44,42,44,40,37,90,84,76,30.30,30.12,16,9,25,0.35
2013-1-3,49,46,43,38,37,34,81,72,58,30.37,30.26,18,10,24,0.00
2013-1-4,49,48,45,43,40,38,91,73,67,30.41,30.31,22,12,26,0.01
2013-1-5,49,47,45,46,42,38,92,83,69,30.33,30.23,20,9,25,0.01
2013-1-6,59,52,46,47,45,42,89,79,59,30.35,30.24,12,7,16,0.00
2013-1-7,59,54,46,57,50,42,95,88,77,30.29,29.97,16,8,22,0.02
2013-1-8,68,63,58,66,61,57,96,95,89,29.96,29.77,21,9,25,0.15
2013-1-9,68,62,59,67,60,57,96,93,89,30.02,29.75,21,7,40,0.80
2013-1-10,62,58,54,58,53,48,95,83,62,30.11,30.01,10,5,15,0.00
2013-1-11,70,64,56,67,62,55,97,94,88,30.01,29.80,12,6,20,0.00
2013-1-12,69,66,64,67,66,64,97,96,93,29.83,29.64,21,12,30,0.00
2013-1-13,68,55,48,67,46,39,97,76,52,30.07,29.69,29,11,32,0.02
2013-1-14,51,46,43,44,40,37,93,81,67,30.16,30.04,18,9,24,0.00
2013-1-15,46,44,42,45,41,37,94,90,82,30.20,30.01,19,10,27,0.09
2013-1-16,56,47,40,37,29,18,80,53,22,30.37,30.21,21,9,26,0.00
2013-1-17,62,50,41,47,37,28,86,62,37,30.45,30.30,12,4,14,0.00
2013-1-18,61,53,46,51,48,43,91,83,66,30.49,30.30,13,5,16,0.00
2013-1-19,67,59,52,55,52,50,92,79,55,30.30,30.15,11,4,14,0.00
2013-1-20,68,60,53,58,55,51,94,83,68,30.24,30.09,11,4,14,0.00
2013-1-21,66,60,56,59,56,54,93,86,75,30.22,30.09,10,4,13,0.00
2013-1-22,69,62,56,58,56,53,91,82,63,30.29,30.15,13,4,14,0.00
2013-1-23,71,64,58,64,60,56,94,89,79,30.32,30.21,12,5,15,0.00
2013-1-24,70,64,59,64,61,58,95,91,79,30.28,30.13,21,8,21,0.00
2013-1-25,69,64,60,63,61,59,96,91,83,30.15,30.03,15,10,24,0.02
2013-1-26,70,64,61,64,61,60,96,90,78,30.13,30.03,13,8,20,0.00
2013-1-27,69,65,62,66,63,60,96,94,88,30.07,29.95,18,9,23,0.01
2013-1-28,71,67,64,66,65,63,96,93,84,30.05,29.90,23,11,25,0.00
2013-1-29,74,67,64,70,64,49,97,92,48,29.90,29.58,28,15,33,0.00
2013-1-30,68,62,54,48,28,15,49,29,14,30.22,29.73,25,12,40,0.00
2013-1-31,65,58,47,52,39,27,80,51,26,30.32,30.21,14,6,18,0.00